Terminal Aerodrome Forecast
Issued by NWS Louisville, KY

Home | Current Version | Previous Version | Text Only | Print | Product List | Glossary On
Versions: 1 2 3 4 5 6 7 8 9 10 11 12 13 14 15 16 17 18 19 20 21
000
FTUS43 KLMK 050500
TAFBWG
TAF
KBWG 050536Z 0506/0606 VRB03KT 5SM BR VCTS BKN019CB
     FM050900 00000KT 3SM BR VCSH BKN009 OVC015
     FM051400 00000KT 6SM BR BKN015
     FM051600 VRB04KT P6SM BKN025
     FM051700 08004KT P6SM SCT040 BKN200=

USA.gov is the U.S. government's official web portal to all federal, state and local government web resources and services.